Time;durP1;ratioP1;P1;durP2;ratioP2;P2;SDS_P1;SDS_P2;PMS_P1;PMS_P2;Temp;Humidity;BMP_temperature;BMP_pressure;BME280_temperature;BME280_humidity;BME280_pressure;Samples;Min_cycle;Max_cycle;Signal;HPM_P1;HPM_P2
2021/10/27 00:00:11;;;;;;;4.13;1.80;;;7.50;99.90;;;;;;5051794;28;20029;-80
2021/10/27 00:02:36;;;;;;;2.30;1.17;;;7.50;99.90;;;;;;5053177;28;20724;-82
2021/10/27 00:05:04;;;;;;;3.83;1.20;;;7.50;99.90;;;;;;5051313;28;20030;-79
2021/10/27 00:07:30;;;;;;;3.63;1.60;;;7.50;99.90;;;;;;5063867;28;20029;-79
2021/10/27 00:09:56;;;;;;;4.73;1.77;;;7.50;99.90;;;;;;5070475;28;20552;-80
2021/10/27 00:12:21;;;;;;;4.17;1.53;;;7.50;99.90;;;;;;5057482;28;20121;-82
2021/10/27 00:14:47;;;;;;;3.03;1.50;;;7.50;99.90;;;;;;5054129;28;20060;-81
2021/10/27 00:17:13;;;;;;;3.33;1.70;;;7.50;99.90;;;;;;5059667;28;20021;-81
2021/10/27 00:19:39;;;;;;;3.22;1.55;;;7.50;99.90;;;;;;5059186;28;20465;-81
2021/10/27 00:22:05;;;;;;;4.40;1.60;;;7.40;99.90;;;;;;5057991;28;20039;-82
2021/10/27 00:24:31;;;;;;;4.18;1.90;;;7.40;99.90;;;;;;5054554;28;20060;-81
2021/10/27 00:26:56;;;;;;;4.18;1.40;;;7.40;99.90;;;;;;5039602;28;20025;-81
2021/10/27 00:29:22;;;;;;;3.83;1.50;;;7.30;99.90;;;;;;5045442;28;20030;-82
2021/10/27 00:31:48;;;;;;;3.10;1.35;;;7.30;99.90;;;;;;5048695;28;20778;-81
2021/10/27 00:34:13;;;;;;;3.05;1.38;;;7.30;99.90;;;;;;5048656;28;20052;-81
2021/10/27 00:36:39;;;;;;;3.33;1.30;;;7.30;99.90;;;;;;5048656;28;20039;-82
2021/10/27 00:39:05;;;;;;;4.40;1.50;;;7.20;99.90;;;;;;5048407;28;20086;-81
2021/10/27 00:41:31;;;;;;;3.78;1.35;;;7.20;99.90;;;;;;5047335;28;20029;-82
2021/10/27 00:43:57;;;;;;;3.50;1.90;;;7.20;99.90;;;;;;5054053;28;20071;-81
2021/10/27 00:46:24;;;;;;;4.20;1.65;;;7.10;99.90;;;;;;5036997;28;20026;-81
2021/10/27 00:48:51;;;;;;;4.87;1.33;;;7.10;99.90;;;;;;5038795;28;20039;-80
2021/10/27 00:51:18;;;;;;;4.60;1.60;;;7.00;99.90;;;;;;5037563;28;20029;-81
2021/10/27 00:53:46;;;;;;;4.10;1.30;;;7.10;99.90;;;;;;5037859;28;20049;-80
2021/10/27 00:56:12;;;;;;;3.83;1.40;;;7.00;99.90;;;;;;5033138;28;20040;-81
2021/10/27 00:58:38;;;;;;;5.85;1.75;;;7.00;99.90;;;;;;5039787;28;20049;-79
2021/10/27 01:01:04;;;;;;;4.97;2.10;;;7.00;99.90;;;;;;5040184;28;20029;-82
2021/10/27 01:03:32;;;;;;;4.27;1.90;;;6.90;99.90;;;;;;5047658;28;20029;-80
2021/10/27 01:05:57;;;;;;;3.17;1.70;;;6.90;99.90;;;;;;5049461;28;20032;-81
2021/10/27 01:08:23;;;;;;;3.97;1.67;;;6.90;99.90;;;;;;5057121;28;20104;-82
2021/10/27 01:10:48;;;;;;;2.97;1.60;;;6.90;99.90;;;;;;5053751;28;20061;-80
2021/10/27 01:13:14;;;;;;;3.60;1.83;;;6.90;99.90;;;;;;5038309;28;20035;-82
2021/10/27 01:15:41;;;;;;;4.80;2.00;;;6.90;99.90;;;;;;5038061;28;20056;-82
2021/10/27 01:18:08;;;;;;;4.13;2.23;;;6.90;99.90;;;;;;5036356;28;20120;-81
2021/10/27 01:20:34;;;;;;;4.87;1.80;;;6.90;99.90;;;;;;5045479;28;20152;-82
2021/10/27 01:23:00;;;;;;;2.93;1.57;;;6.90;99.90;;;;;;5050579;28;20471;-82
2021/10/27 01:25:26;;;;;;;3.47;1.87;;;6.90;99.90;;;;;;5058939;28;20085;-81
2021/10/27 01:27:53;;;;;;;4.47;1.93;;;6.90;99.90;;;;;;5048805;28;20105;-82
2021/10/27 01:30:22;;;;;;;5.33;2.33;;;6.90;99.90;;;;;;5037121;28;20052;-82
2021/10/27 01:32:50;;;;;;;4.30;2.13;;;6.90;99.90;;;;;;5039219;28;20087;-82
2021/10/27 01:35:16;;;;;;;5.27;2.37;;;6.90;99.90;;;;;;5040527;28;20025;-82
2021/10/27 01:37:44;;;;;;;4.07;2.10;;;6.80;99.90;;;;;;5040066;28;20037;-82
2021/10/27 01:40:16;;;;;;;4.37;1.90;;;6.80;99.90;;;;;;5039481;28;20029;-81
2021/10/27 01:42:41;;;;;;;5.13;2.37;;;6.90;99.90;;;;;;5038827;28;20029;-80
2021/10/27 01:45:08;;;;;;;4.10;2.03;;;6.80;99.90;;;;;;5039398;28;20295;-79
2021/10/27 01:47:34;;;;;;;5.07;2.43;;;6.80;99.90;;;;;;5039386;28;20033;-81
2021/10/27 01:50:00;;;;;;;5.23;2.70;;;6.80;99.90;;;;;;5045717;28;20029;-81
2021/10/27 01:52:26;;;;;;;4.83;2.70;;;6.90;99.90;;;;;;5050949;28;20062;-82
2021/10/27 01:54:52;;;;;;;7.27;2.60;;;6.90;99.90;;;;;;5041440;28;20116;-80
2021/10/27 01:57:18;;;;;;;4.57;2.60;;;6.90;99.90;;;;;;5059627;28;20044;-83
2021/10/27 01:59:44;;;;;;;6.27;2.53;;;6.90;99.90;;;;;;5057662;28;20553;-82
2021/10/27 02:02:09;;;;;;;4.27;2.20;;;6.90;99.90;;;;;;5059100;28;20114;-81
2021/10/27 02:04:35;;;;;;;4.73;2.80;;;6.90;99.90;;;;;;5051313;28;20029;-82
2021/10/27 02:07:01;;;;;;;5.53;2.77;;;6.90;99.90;;;;;;5045636;28;20017;-81
2021/10/27 02:09:27;;;;;;;5.07;2.57;;;6.90;99.90;;;;;;5058689;28;20036;-81
2021/10/27 02:11:53;;;;;;;4.70;2.17;;;6.90;99.90;;;;;;5058331;28;20056;-82
2021/10/27 02:14:19;;;;;;;4.90;2.30;;;6.80;99.90;;;;;;5047725;28;20456;-81
2021/10/27 02:16:44;;;;;;;6.60;2.67;;;6.80;99.90;;;;;;5050381;28;20029;-81
2021/10/27 02:19:10;;;;;;;4.20;2.30;;;6.70;99.90;;;;;;5062160;28;20076;-81
2021/10/27 02:21:36;;;;;;;4.43;2.13;;;6.70;99.90;;;;;;5054524;28;20043;-81
2021/10/27 02:24:02;;;;;;;6.23;2.67;;;6.70;99.90;;;;;;5043249;28;20052;-82
2021/10/27 02:26:28;;;;;;;4.00;2.33;;;6.70;99.90;;;;;;5043506;28;20095;-80
2021/10/27 02:28:54;;;;;;;4.13;1.90;;;6.70;99.90;;;;;;5042714;28;20022;-80
2021/10/27 02:31:20;;;;;;;4.90;2.50;;;6.70;99.90;;;;;;5041646;28;20038;-83
2021/10/27 02:33:46;;;;;;;6.90;2.57;;;6.60;99.90;;;;;;5042482;28;20037;-81
2021/10/27 02:36:12;;;;;;;5.73;2.37;;;6.60;99.90;;;;;;5042986;28;20030;-82
2021/10/27 02:38:41;;;;;;;4.13;2.03;;;6.60;99.90;;;;;;5051241;28;20055;-80
2021/10/27 02:41:07;;;;;;;6.60;2.60;;;6.60;99.90;;;;;;5060553;28;20056;-81
2021/10/27 02:43:32;;;;;;;7.03;2.70;;;6.60;99.90;;;;;;5061417;28;20036;-82
2021/10/27 02:45:58;;;;;;;5.87;2.83;;;6.60;99.90;;;;;;5062068;28;20056;-82
2021/10/27 02:48:24;;;;;;;5.40;2.67;;;6.60;99.90;;;;;;5048766;28;20025;-82
2021/10/27 02:50:49;;;;;;;4.97;2.50;;;6.50;99.90;;;;;;5039159;28;20490;-82
2021/10/27 02:53:15;;;;;;;4.37;2.47;;;6.50;99.90;;;;;;5042247;28;20052;-81
2021/10/27 02:55:41;;;;;;;4.50;2.37;;;6.50;99.90;;;;;;5054403;28;20676;-81
2021/10/27 02:58:06;;;;;;;5.80;2.80;;;6.50;99.90;;;;;;5062923;28;20017;-82
2021/10/27 03:00:32;;;;;;;6.23;2.57;;;6.50;99.90;;;;;;5062092;28;20013;-82
2021/10/27 03:02:57;;;;;;;5.10;2.60;;;6.50;99.90;;;;;;5063646;28;20026;-81
2021/10/27 03:05:23;;;;;;;6.60;2.63;;;6.50;99.90;;;;;;5056153;28;20111;-82
2021/10/27 03:07:49;;;;;;;6.33;2.80;;;6.50;99.90;;;;;;5055394;28;20126;-81
2021/10/27 03:10:16;;;;;;;4.77;2.30;;;6.50;99.90;;;;;;5061738;28;20819;-82
2021/10/27 03:12:42;;;;;;;4.80;2.40;;;6.40;99.90;;;;;;5062658;28;20104;-82
2021/10/27 03:15:08;;;;;;;4.33;2.40;;;6.40;99.90;;;;;;5050955;28;20584;-80
2021/10/27 03:17:34;;;;;;;5.23;2.47;;;6.40;99.90;;;;;;5041407;28;20033;-81
2021/10/27 03:20:00;;;;;;;4.60;2.60;;;6.40;99.90;;;;;;5040789;28;20060;-81
2021/10/27 03:22:25;;;;;;;4.37;2.27;;;6.40;99.90;;;;;;5042310;28;20116;-80
2021/10/27 03:24:51;;;;;;;5.70;2.50;;;6.40;99.90;;;;;;5040232;28;20036;-81
2021/10/27 03:27:17;;;;;;;5.27;2.57;;;6.40;99.90;;;;;;5040221;28;20187;-82
2021/10/27 03:29:42;;;;;;;4.60;2.30;;;6.40;99.90;;;;;;5039881;28;20029;-82
2021/10/27 03:32:09;;;;;;;6.17;3.20;;;6.40;99.90;;;;;;5039528;28;20028;-80
2021/10/27 03:34:35;;;;;;;6.33;2.73;;;6.40;99.90;;;;;;5040005;28;20033;-80
2021/10/27 03:37:02;;;;;;;5.27;2.73;;;6.40;99.90;;;;;;5039476;28;20371;-80
2021/10/27 03:39:28;;;;;;;4.20;2.17;;;6.40;99.90;;;;;;5039358;28;20026;-81
2021/10/27 03:41:53;;;;;;;11.23;2.30;;;6.30;99.90;;;;;;5037573;28;20162;-80
2021/10/27 03:44:19;;;;;;;4.50;2.07;;;6.30;99.90;;;;;;5039946;28;20048;-80
2021/10/27 03:46:45;;;;;;;4.97;2.40;;;6.30;99.90;;;;;;5039522;28;20436;-80
2021/10/27 03:49:11;;;;;;;4.90;2.90;;;6.30;99.90;;;;;;5054138;28;20049;-79
2021/10/27 03:51:36;;;;;;;5.13;2.17;;;6.30;99.90;;;;;;5038560;28;20033;-80
2021/10/27 03:54:02;;;;;;;4.70;2.50;;;6.20;99.90;;;;;;5036136;28;20625;-80
2021/10/27 03:56:28;;;;;;;4.83;2.50;;;6.20;99.90;;;;;;5035185;28;20044;-80
2021/10/27 03:58:54;;;;;;;6.87;2.93;;;6.20;99.90;;;;;;5037686;28;20040;-79
2021/10/27 04:01:20;;;;;;;3.57;2.00;;;6.20;99.90;;;;;;5037469;28;20490;-80
2021/10/27 04:03:46;;;;;;;3.57;1.83;;;6.20;99.90;;;;;;5037795;28;20536;-80
2021/10/27 04:06:11;;;;;;;3.63;1.83;;;6.10;99.90;;;;;;5039629;28;20033;-80
2021/10/27 04:08:37;;;;;;;3.67;1.97;;;6.10;99.90;;;;;;5057173;28;20025;-80
2021/10/27 04:11:02;;;;;;;4.60;2.27;;;6.10;99.90;;;;;;5057668;28;20076;-81
2021/10/27 04:13:28;;;;;;;3.87;1.80;;;6.10;99.90;;;;;;5051159;28;20021;-81
2021/10/27 04:15:54;;;;;;;4.70;2.60;;;6.10;99.90;;;;;;5043821;28;20024;-80
2021/10/27 04:18:19;;;;;;;4.30;2.20;;;6.10;99.90;;;;;;5045191;28;20521;-79
2021/10/27 04:20:45;;;;;;;4.60;2.20;;;6.00;99.90;;;;;;5052751;28;20067;-80
2021/10/27 04:23:11;;;;;;;3.37;1.90;;;5.90;99.90;;;;;;5050210;28;20256;-81
2021/10/27 04:25:37;;;;;;;4.57;2.30;;;5.90;99.90;;;;;;5039635;28;20025;-81
2021/10/27 04:28:03;;;;;;;5.40;2.07;;;5.90;99.90;;;;;;5046457;28;20429;-81
2021/10/27 04:30:29;;;;;;;4.70;2.10;;;5.80;99.90;;;;;;5056835;28;20021;-80
2021/10/27 04:32:55;;;;;;;3.53;1.80;;;5.80;99.90;;;;;;5057894;28;20029;-80
2021/10/27 04:35:22;;;;;;;5.17;2.20;;;5.80;99.90;;;;;;5054053;28;20033;-80
2021/10/27 04:37:48;;;;;;;3.90;1.90;;;5.80;99.90;;;;;;5056633;28;20556;-80
2021/10/27 04:40:16;;;;;;;3.77;2.03;;;5.70;99.90;;;;;;5058042;28;20055;-80
2021/10/27 04:42:43;;;;;;;3.90;2.07;;;5.60;99.90;;;;;;5057716;28;20021;-78
2021/10/27 04:45:10;;;;;;;9.80;2.47;;;5.60;99.90;;;;;;5055430;28;20021;-80
2021/10/27 04:47:37;;;;;;;4.53;1.93;;;5.50;99.90;;;;;;5070218;22;20102;-83
2021/10/27 04:50:04;;;;;;;4.07;2.03;;;5.60;99.90;;;;;;5071686;28;20021;-81
2021/10/27 04:52:30;;;;;;;5.17;2.47;;;5.60;99.90;;;;;;5074331;28;20059;-82
2021/10/27 04:54:56;;;;;;;5.90;2.33;;;5.70;99.90;;;;;;5064490;28;20032;-82
2021/10/27 04:57:22;;;;;;;5.90;2.67;;;5.70;99.90;;;;;;5073497;28;20033;-82
2021/10/27 04:59:48;;;;;;;5.63;2.73;;;5.70;99.90;;;;;;5073398;28;20081;-82
2021/10/27 05:02:16;;;;;;;4.87;1.87;;;5.60;99.90;;;;;;5073675;28;20060;-82
2021/10/27 05:04:42;;;;;;;4.13;1.97;;;5.60;99.90;;;;;;5072649;28;20028;-82
2021/10/27 05:07:11;;;;;;;9.20;2.30;;;5.60;99.90;;;;;;5076303;28;20012;-82
2021/10/27 05:09:37;;;;;;;7.37;2.37;;;5.60;99.90;;;;;;5073632;28;20058;-82
2021/10/27 05:12:05;;;;;;;6.03;2.60;;;5.60;99.90;;;;;;5074785;28;20115;-82
2021/10/27 05:14:39;;;;;;;4.00;2.07;;;5.60;99.90;;;;;;5072484;28;20032;-82
2021/10/27 05:17:09;;;;;;;9.77;2.00;;;5.60;99.90;;;;;;5076618;28;20131;-82
2021/10/27 05:19:35;;;;;;;3.77;1.70;;;5.50;99.90;;;;;;5071443;28;20032;-82
2021/10/27 05:22:01;;;;;;;3.57;1.47;;;5.60;99.90;;;;;;5075961;28;20131;-81
2021/10/27 05:24:27;;;;;;;5.63;1.87;;;5.60;99.90;;;;;;5072628;28;20055;-82
2021/10/27 05:26:52;;;;;;;9.20;1.70;;;5.60;99.90;;;;;;5074957;28;20104;-82
2021/10/27 05:29:18;;;;;;;3.63;1.87;;;5.60;99.90;;;;;;5075632;28;20021;-82
2021/10/27 05:31:44;;;;;;;3.57;1.90;;;5.50;99.90;;;;;;5076832;28;20037;-82
2021/10/27 05:34:09;;;;;;;4.67;1.83;;;5.50;99.90;;;;;;5073033;28;20024;-83
2021/10/27 05:36:35;;;;;;;4.27;1.60;;;5.50;99.90;;;;;;5071196;28;20032;-83
2021/10/27 05:39:01;;;;;;;5.90;1.87;;;5.50;99.90;;;;;;5074623;28;20032;-83
2021/10/27 05:41:27;;;;;;;5.50;2.10;;;5.50;99.90;;;;;;5059426;28;20028;-83
2021/10/27 05:43:53;;;;;;;3.53;1.80;;;5.50;99.90;;;;;;5076885;28;20477;-82
2021/10/27 05:46:20;;;;;;;3.83;1.63;;;5.50;99.90;;;;;;5076722;28;20074;-83
2021/10/27 05:48:49;;;;;;;4.90;1.67;;;5.50;99.90;;;;;;5077632;28;20044;-82
2021/10/27 05:51:34;;;;;;;4.33;1.90;;;5.50;99.90;;;;;;5076345;28;20025;-82
2021/10/27 05:56:44;;;;;;;5.43;1.73;;;5.40;99.90;;;;;;5078974;28;20042;-82
2021/10/27 05:59:10;;;;;;;6.30;2.50;;;5.40;99.90;;;;;;5079931;28;20540;-83
2021/10/27 06:01:35;;;;;;;5.37;2.20;;;5.40;99.90;;;;;;5079416;28;20060;-83
2021/10/27 06:04:01;;;;;;;5.23;2.13;;;5.40;99.90;;;;;;5078360;28;20024;-83
2021/10/27 06:06:27;;;;;;;4.67;1.77;;;5.40;99.90;;;;;;5083800;28;20025;-83
2021/10/27 06:08:55;;;;;;;4.37;2.20;;;5.40;99.90;;;;;;5077253;28;20138;-83
2021/10/27 06:11:20;;;;;;;5.17;2.03;;;5.30;99.90;;;;;;5072640;28;20017;-82
2021/10/27 06:13:46;;;;;;;4.97;2.10;;;5.40;99.90;;;;;;5073284;28;20025;-83
2021/10/27 06:16:13;;;;;;;4.57;2.10;;;5.40;99.90;;;;;;5084559;28;20051;-83
2021/10/27 06:18:40;;;;;;;6.30;2.23;;;5.40;99.90;;;;;;5076422;28;20025;-83
2021/10/27 06:21:08;;;;;;;4.40;2.20;;;5.40;99.90;;;;;;5070890;28;20025;-83
2021/10/27 06:23:34;;;;;;;4.63;1.77;;;5.50;99.90;;;;;;5073033;28;20060;-84
2021/10/27 06:26:00;;;;;;;6.57;2.20;;;5.50;99.90;;;;;;5076343;28;20024;-83
2021/10/27 06:28:28;;;;;;;4.67;1.70;;;5.60;99.90;;;;;;5074658;28;20029;-83
2021/10/27 06:31:38;;;;;;;5.10;1.83;;;5.60;99.90;;;;;;5066629;28;20025;-83
2021/10/27 06:33:55;;;;;;;5.43;2.00;;;5.60;99.90;;;;;;5046934;28;20123;-84
2021/10/27 06:37:15;;;;;;;4.40;2.10;;;5.60;99.90;;;;;;5054466;28;20697;-83
2021/10/27 06:47:19;;;;;;;4.43;2.10;;;5.70;99.90;;;;;;5069185;28;20043;-83
2021/10/27 06:49:45;;;;;;;4.30;2.20;;;5.70;99.90;;;;;;5068989;28;20504;-84
2021/10/27 06:52:11;;;;;;;7.87;2.40;;;5.70;99.90;;;;;;5062179;28;20036;-84
2021/10/27 06:54:37;;;;;;;4.10;2.27;;;5.70;99.90;;;;;;5071584;28;20875;-83
2021/10/27 06:57:03;;;;;;;3.83;1.90;;;5.70;99.90;;;;;;5062499;28;20025;-85
2021/10/27 07:00:11;;;;;;;4.43;2.47;;;5.50;99.90;;;;;;5068402;28;20028;-85
2021/10/27 07:02:54;;;;;;;6.93;2.90;;;5.40;99.90;;;;;;5061957;28;20056;-84
2021/10/27 07:16:14;;;;;;;4.90;2.20;;;5.20;99.90;;;;;;5073058;28;20592;-85
2021/10/27 07:18:40;;;;;;;3.47;1.90;;;5.30;99.90;;;;;;5071423;28;20107;-84
2021/10/27 07:21:05;;;;;;;3.70;2.07;;;5.40;99.90;;;;;;5069859;28;20116;-84
2021/10/27 07:23:32;;;;;;;4.17;2.03;;;5.50;99.90;;;;;;5075406;28;20045;-83
2021/10/27 07:25:58;;;;;;;4.83;2.47;;;5.60;99.90;;;;;;5077658;28;20086;-83
2021/10/27 07:28:26;;;;;;;6.33;2.20;;;5.80;99.90;;;;;;5076392;28;20024;-84
2021/10/27 07:30:53;;;;;;;4.67;2.47;;;5.90;99.90;;;;;;5074710;28;20024;-84
2021/10/27 07:33:19;;;;;;;6.27;2.63;;;6.00;99.90;;;;;;5076634;28;20093;-84
2021/10/27 07:35:53;;;;;;;5.23;2.50;;;6.10;99.90;;;;;;5076866;28;20035;-84
2021/10/27 07:41:03;;;;;;;4.57;2.60;;;6.20;99.90;;;;;;5060835;28;20529;-83
2021/10/27 07:43:31;;;;;;;9.13;3.00;;;6.30;99.90;;;;;;5056518;28;20046;-83
2021/10/27 07:45:58;;;;;;;5.53;2.20;;;6.30;99.90;;;;;;5056806;28;20150;-83
2021/10/27 07:48:24;;;;;;;4.90;2.50;;;6.40;99.90;;;;;;5056344;28;20112;-84
2021/10/27 07:50:51;;;;;;;8.90;2.00;;;6.40;99.90;;;;;;5053551;28;20021;-84
2021/10/27 07:53:17;;;;;;;4.73;2.23;;;6.40;99.90;;;;;;5055502;28;20047;-84
2021/10/27 07:55:51;;;;;;;3.83;2.10;;;6.50;99.90;;;;;;5053720;28;20039;-84
2021/10/27 07:58:22;;;;;;;5.03;2.40;;;6.60;99.90;;;;;;5070540;28;20035;-83
2021/10/27 08:00:49;;;;;;;5.93;2.37;;;6.60;99.90;;;;;;5069956;28;20029;-83
2021/10/27 08:03:15;;;;;;;4.20;2.03;;;6.60;99.90;;;;;;5055139;28;20063;-85
2021/10/27 08:05:42;;;;;;;5.13;2.50;;;6.70;99.90;;;;;;5063545;28;20021;-84
2021/10/27 08:08:13;;;;;;;3.83;2.10;;;6.70;99.90;;;;;;5054648;28;20021;-84
2021/10/27 08:10:39;;;;;;;8.23;2.60;;;6.80;99.90;;;;;;5054172;28;20481;-83
2021/10/27 08:13:06;;;;;;;5.47;2.50;;;6.80;99.90;;;;;;5053295;28;20040;-83
2021/10/27 08:15:33;;;;;;;5.27;3.27;;;6.90;99.90;;;;;;5073879;28;20017;-84
2021/10/27 08:17:59;;;;;;;6.33;2.60;;;7.00;99.90;;;;;;5073864;28;20020;-84
2021/10/27 08:20:27;;;;;;;5.37;2.60;;;7.00;99.90;;;;;;5072894;28;20032;-84
2021/10/27 08:23:02;;;;;;;5.53;2.70;;;7.00;99.90;;;;;;5068350;28;20036;-84
2021/10/27 08:25:30;;;;;;;4.70;2.33;;;7.00;99.90;;;;;;5065462;28;20024;-84
2021/10/27 08:28:13;;;;;;;5.00;2.47;;;7.10;99.90;;;;;;5063657;28;20025;-84
2021/10/27 08:30:54;;;;;;;;;;;7.20;99.90;;;;;;5072672;28;20762;-84
2021/10/27 08:33:24;;;;;;;4.40;2.27;;;7.20;99.90;;;;;;5071025;28;20299;-83
2021/10/27 08:35:50;;;;;;;5.27;2.70;;;7.20;99.90;;;;;;5073498;28;20020;-83
2021/10/27 08:38:16;;;;;;;4.57;2.40;;;7.30;99.90;;;;;;5071074;28;20035;-84
2021/10/27 08:40:45;;;;;;;6.00;2.87;;;7.40;99.90;;;;;;5065016;28;20061;-85
2021/10/27 08:43:12;;;;;;;5.63;2.83;;;7.50;99.90;;;;;;5050598;28;20059;-85
2021/10/27 08:45:39;;;;;;;6.40;3.00;;;7.60;99.90;;;;;;5051087;28;20017;-84
2021/10/27 08:48:08;;;;;;;6.67;3.30;;;7.70;99.90;;;;;;5051526;28;20037;-84
2021/10/27 08:50:34;;;;;;;6.90;3.20;;;7.70;99.90;;;;;;5056219;28;20465;-85
2021/10/27 08:53:01;;;;;;;5.17;2.60;;;7.90;99.90;;;;;;5070622;28;20125;-84
2021/10/27 08:55:27;;;;;;;7.67;3.30;;;8.10;99.90;;;;;;5070105;28;20032;-85
2021/10/27 08:57:53;;;;;;;6.23;3.10;;;8.10;99.90;;;;;;5071207;28;20105;-84
2021/10/27 09:00:24;;;;;;;5.27;3.13;;;8.10;99.90;;;;;;5065132;28;20452;-84
2021/10/27 09:05:38;;;;;;;7.37;3.10;;;8.30;99.90;;;;;;5051133;28;20103;-84
2021/10/27 09:17:04;;;;;;;8.48;3.53;;;8.70;99.90;;;;;;5070779;28;20109;-84
2021/10/27 09:39:18;;;;;;;6.57;3.00;;;9.40;99.90;;;;;;5071666;28;20039;-85
2021/10/27 09:47:36;;;;;;;5.25;3.30;;;9.70;99.90;;;;;;5070410;28;20089;-84
2021/10/27 09:55:51;;;;;;;6.45;3.80;;;9.90;99.90;;;;;;5070459;28;20039;-85
2021/10/27 10:04:09;;;;;;;6.57;3.25;;;10.30;99.90;;;;;;5070717;28;20508;-85
2021/10/27 10:06:44;;;;;;;6.15;3.20;;;10.40;99.90;;;;;;5068858;28;20020;-85
2021/10/27 10:09:11;;;;;;;6.15;2.70;;;10.60;99.90;;;;;;5069022;28;20025;-86
2021/10/27 10:11:38;;;;;;;6.90;3.10;;;10.80;99.90;;;;;;5068744;28;20116;-85
2021/10/27 10:14:08;;;;;;;4.68;2.80;;;10.90;99.90;;;;;;5068413;28;20040;-85
2021/10/27 10:16:47;;;;;;;5.47;2.67;;;11.00;99.90;;;;;;5070075;28;20603;-85
2021/10/27 10:19:17;;;;;;;5.68;2.70;;;11.10;99.90;;;;;;5070032;28;20574;-85
2021/10/27 10:21:48;;;;;;;4.60;2.58;;;11.20;99.90;;;;;;5064496;28;20036;-85
2021/10/27 10:24:17;;;;;;;5.35;2.75;;;11.30;99.90;;;;;;5050161;28;20159;-85
2021/10/27 10:26:47;;;;;;;4.28;2.35;;;11.30;99.90;;;;;;5048760;28;20045;-85
2021/10/27 10:29:55;;;;;;;5.43;2.70;;;11.40;99.90;;;;;;5068691;28;20036;-85
2021/10/27 10:32:25;;;;;;;5.13;2.25;;;11.40;99.90;;;;;;5027472;28;20033;-85
2021/10/27 10:35:00;;;;;;;5.22;2.88;;;11.40;99.90;;;;;;5027743;28;20029;-85
2021/10/27 10:57:50;;;;;;;4.53;2.08;;;11.70;99.90;;;;;;5069211;28;20039;-84
2021/10/27 11:22:57;;;;;;;4.47;2.08;;;12.40;99.90;;;;;;5070023;28;20040;-84
2021/10/27 11:25:40;;;;;;;3.40;1.77;;;12.60;99.90;;;;;;5064989;28;20036;-84
2021/10/27 11:39:35;;;;;;;4.47;2.10;;;12.90;99.90;;;;;;5072045;28;20035;-85
2021/10/27 11:42:22;;;;;;;6.32;2.05;;;13.00;99.90;;;;;;5068408;28;20048;-85
2021/10/27 11:44:53;;;;;;;5.25;2.22;;;13.10;99.90;;;;;;5065794;28;20021;-85
2021/10/27 11:47:37;;;;;;;4.45;1.92;;;13.10;99.90;;;;;;5069567;28;20111;-85
2021/10/27 11:50:05;;;;;;;4.93;1.98;;;13.20;99.90;;;;;;5065304;28;20539;-85
2021/10/27 11:52:42;;;;;;;3.58;1.50;;;13.20;99.90;;;;;;5066348;28;20054;-85
2021/10/27 11:55:09;;;;;;;5.03;1.90;;;13.30;99.90;;;;;;5070286;28;20369;-85
2021/10/27 11:57:36;;;;;;;4.43;1.80;;;13.40;99.90;;;;;;5069779;28;20028;-84
2021/10/27 12:00:09;;;;;;;4.05;2.25;;;13.30;99.90;;;;;;5066221;28;20108;-84
2021/10/27 12:03:06;;;;;;;6.63;1.88;;;13.40;99.90;;;;;;5066168;28;22458;-84
2021/10/27 12:11:08;;;;;;;4.55;1.73;;;13.60;99.90;;;;;;5067354;28;20108;-83
2021/10/27 12:17:24;;;;;;;3.13;1.40;;;13.60;99.90;;;;;;5057920;28;20031;-83
2021/10/27 12:19:22;;;;;;;3.15;1.33;;;13.60;99.90;;;;;;5048522;28;20063;-83
2021/10/27 12:21:52;;;;;;;3.58;1.40;;;13.60;99.90;;;;;;5063161;28;20024;-83
2021/10/27 12:24:22;;;;;;;4.90;1.60;;;13.70;99.90;;;;;;5054984;28;20029;-82
2021/10/27 12:27:15;;;;;;;3.10;1.25;;;13.70;99.90;;;;;;5067289;28;20140;-83
2021/10/27 12:29:41;;;;;;;2.95;1.13;;;13.80;99.90;;;;;;5063051;28;20092;-83
2021/10/27 12:32:13;;;;;;;3.47;1.35;;;13.80;99.90;;;;;;5068453;28;20076;-83
2021/10/27 12:34:50;;;;;;;1.67;0.85;;;13.90;99.90;;;;;;5067750;28;20507;-83
2021/10/27 12:37:31;;;;;;;2.67;1.00;;;14.00;99.90;;;;;;5066644;28;20121;-83
2021/10/27 12:40:42;;;;;;;2.90;1.33;;;14.00;99.90;;;;;;5063443;28;20120;-83
2021/10/27 12:43:09;;;;;;;2.88;1.48;;;14.20;99.90;;;;;;5061197;28;20488;-83
2021/10/27 12:45:51;;;;;;;2.70;1.08;;;14.20;99.90;;;;;;5063668;28;20043;-82
2021/10/27 12:48:21;;;;;;;2.60;0.98;;;14.20;99.90;;;;;;5066275;28;20036;-83
2021/10/27 12:50:58;;;;;;;2.55;0.95;;;14.20;99.90;;;;;;5065780;28;20028;-84
2021/10/27 12:53:35;;;;;;;3.90;1.25;;;14.30;99.90;;;;;;5064680;28;20024;-83
2021/10/27 12:56:07;;;;;;;2.85;1.13;;;14.30;99.90;;;;;;5068486;28;20028;-83
2021/10/27 12:58:36;;;;;;;3.05;1.52;;;14.40;99.90;;;;;;5065674;28;20611;-83
2021/10/27 13:01:15;;;;;;;3.13;1.52;;;14.50;99.90;;;;;;5060753;28;20043;-83
2021/10/27 13:07:31;;;;;;;4.35;1.70;;;14.80;99.90;;;;;;5066817;28;20056;-82
2021/10/27 13:12:19;;;;;;;3.03;1.33;;;15.00;99.90;;;;;;5067516;28;20086;-84
2021/10/27 13:15:08;;;;;;;3.60;1.73;;;15.10;99.90;;;;;;5066333;28;20043;-83
2021/10/27 13:22:54;;;;;;;3.15;1.25;;;15.10;99.90;;;;;;5069613;28;20480;-83
2021/10/27 13:33:24;;;;;;;3.55;1.42;;;15.40;99.90;;;;;;5068647;28;20020;-83
2021/10/27 13:35:50;;;;;;;3.00;1.35;;;15.50;99.90;;;;;;5065313;28;20487;-83
2021/10/27 13:38:20;;;;;;;3.65;1.70;;;15.60;99.90;;;;;;5067196;28;20103;-84
2021/10/27 13:40:46;;;;;;;3.25;1.70;;;15.70;99.90;;;;;;5061855;28;20066;-83
2021/10/27 13:43:21;;;;;;;4.30;1.50;;;15.70;99.90;;;;;;5060590;28;20028;-82
2021/10/27 13:46:10;;;;;;;3.25;1.48;;;15.70;99.90;;;;;;5068655;28;20373;-81
2021/10/27 13:48:51;;;;;;;2.97;1.40;;;15.80;99.90;;;;;;5068874;28;20036;-82
2021/10/27 14:07:48;;;;;;;3.75;1.85;;;16.80;99.90;;;;;;5065619;28;20026;-83
2021/10/27 15:20:39;;;;;;;3.72;1.27;;;14.50;99.90;;;;;;5067877;28;20074;-82
2021/10/27 15:23:15;;;;;;;3.20;1.35;;;14.30;99.90;;;;;;5061633;28;20078;-84
2021/10/27 15:28:44;;;;;;;2.10;0.88;;;14.10;99.90;;;;;;4997945;28;20041;-83
2021/10/27 15:41:58;;;;;;;2.05;0.70;;;13.80;99.90;;;;;;5051281;28;20044;-83
2021/10/27 15:44:36;;;;;;;2.25;0.80;;;13.60;99.90;;;;;;5053794;28;20028;-83
2021/10/27 15:52:33;;;;;;;3.85;0.80;;;13.40;99.90;;;;;;5071086;28;20035;-82
2021/10/27 15:55:06;;;;;;;1.65;0.70;;;13.30;99.90;;;;;;5069908;28;20112;-82
2021/10/27 15:57:31;;;;;;;2.05;0.73;;;13.20;99.90;;;;;;5067595;28;20040;-83
2021/10/27 15:59:57;;;;;;;1.95;0.70;;;13.10;99.90;;;;;;5069091;28;20385;-83
2021/10/27 16:02:23;;;;;;;3.90;1.25;;;13.00;99.90;;;;;;5069216;28;20025;-83
2021/10/27 16:04:49;;;;;;;3.35;0.80;;;12.90;99.90;;;;;;5070492;28;20025;-84
2021/10/27 16:07:18;;;;;;;1.67;0.68;;;12.80;99.90;;;;;;5069764;28;20032;-85
2021/10/27 16:09:48;;;;;;;1.27;0.60;;;12.80;99.90;;;;;;5066159;28;20545;-84
2021/10/27 16:12:14;;;;;;;1.67;0.80;;;12.70;99.90;;;;;;5070604;28;20050;-84
2021/10/27 16:14:40;;;;;;;2.13;0.90;;;12.50;99.90;;;;;;5063087;28;20017;-83
2021/10/27 16:17:06;;;;;;;1.73;0.70;;;12.50;99.90;;;;;;5059678;28;20029;-83
2021/10/27 16:19:32;;;;;;;3.47;0.95;;;12.40;99.90;;;;;;5065600;28;20488;-83
2021/10/27 16:21:58;;;;;;;3.03;0.90;;;12.30;99.90;;;;;;5067183;28;20033;-83
2021/10/27 16:24:27;;;;;;;1.95;0.80;;;12.20;99.90;;;;;;5062994;28;20025;-83
2021/10/27 16:26:54;;;;;;;3.58;0.90;;;12.10;99.90;;;;;;5050693;28;20021;-83
2021/10/27 16:29:20;;;;;;;2.55;0.82;;;12.10;99.90;;;;;;5051763;28;20048;-83
2021/10/27 16:31:46;;;;;;;2.95;1.00;;;12.00;99.90;;;;;;5058829;28;20109;-83
2021/10/27 16:34:13;;;;;;;1.60;0.75;;;11.90;99.90;;;;;;5062228;28;20027;-83
2021/10/27 16:36:39;;;;;;;2.03;0.82;;;11.90;99.90;;;;;;5070495;28;20162;-83
2021/10/27 16:39:05;;;;;;;2.67;1.10;;;11.80;99.90;;;;;;5067280;28;20143;-83
2021/10/27 16:41:31;;;;;;;2.95;1.20;;;11.80;99.90;;;;;;5067475;28;20032;-83
2021/10/27 16:43:57;;;;;;;3.95;1.20;;;11.70;99.90;;;;;;5068964;28;20051;-83
2021/10/27 16:46:23;;;;;;;2.60;0.85;;;11.60;99.90;;;;;;5068085;28;20116;-82
2021/10/27 16:48:50;;;;;;;4.65;1.23;;;11.50;99.90;;;;;;5098567;23;20103;-84
2021/10/27 16:51:17;;;;;;;4.30;1.17;;;11.50;99.90;;;;;;5100457;28;20095;-84
2021/10/27 16:53:44;;;;;;;2.42;1.10;;;11.50;99.90;;;;;;5090271;28;20063;-85
2021/10/27 16:56:09;;;;;;;2.20;0.93;;;11.40;99.90;;;;;;5098604;28;20024;-85
2021/10/27 16:58:35;;;;;;;2.85;1.20;;;11.30;99.90;;;;;;5098990;28;20033;-84
2021/10/27 17:01:01;;;;;;;3.65;1.20;;;11.30;99.90;;;;;;5087075;28;20046;-84
2021/10/27 17:03:29;;;;;;;3.60;1.15;;;11.30;99.90;;;;;;5084994;28;20088;-84
2021/10/27 17:05:56;;;;;;;8.43;2.40;;;11.10;99.90;;;;;;5067710;28;20049;-84
2021/10/27 17:08:24;;;;;;;7.63;2.75;;;11.00;99.90;;;;;;5080209;28;20016;-84
2021/10/27 17:10:51;;;;;;;6.55;2.13;;;11.00;99.90;;;;;;5094543;28;20016;-85
2021/10/27 17:13:19;;;;;;;9.43;2.97;;;10.90;99.90;;;;;;5089370;28;20040;-84
2021/10/27 17:15:47;;;;;;;5.40;2.40;;;10.90;99.90;;;;;;5088095;28;20056;-85
2021/10/27 17:18:14;;;;;;;6.13;2.00;;;10.80;99.90;;;;;;5084228;28;20028;-82
2021/10/27 17:20:44;;;;;;;6.05;2.42;;;10.80;99.90;;;;;;5078044;28;20543;-85